createdAt,value
2018-08-09T00:00:08.903Z,96122.52
2018-08-09T00:02:37.825Z,96125.43
2018-08-09T00:05:06.447Z,96124.19
2018-08-09T00:07:36.957Z,96119.99
2018-08-09T00:10:07.809Z,96120.47
2018-08-09T00:12:36.882Z,96108.19
2018-08-09T00:15:05.893Z,96111.32
2018-08-09T00:17:34.620Z,96113.03
2018-08-09T00:20:03.298Z,96112.18
2018-08-09T00:22:31.892Z,96107.96
2018-08-09T00:25:00.431Z,96105.97
2018-08-09T00:27:33.921Z,96100.23
2018-08-09T00:30:02.643Z,96100.30
2018-08-09T00:32:31.675Z,96106.96
2018-08-09T00:35:00.285Z,96111.55
2018-08-09T00:37:28.817Z,96099.56
2018-08-09T00:39:57.413Z,96102.91
2018-08-09T00:42:26.280Z,96101.83
2018-08-09T00:44:55.235Z,96100.03
2018-08-09T00:47:24.217Z,96105.89
2018-08-09T00:49:52.797Z,96096.52
2018-08-09T00:52:21.363Z,96095.80
2018-08-09T00:54:49.961Z,96098.22
2018-08-09T00:57:18.513Z,96093.98
2018-08-09T00:59:47.136Z,96088.94
2018-08-09T01:02:15.667Z,96094.90
2018-08-09T01:04:44.261Z,96092.15
2018-08-09T01:07:17.413Z,96095.48
2018-08-09T01:09:45.980Z,96090.06
2018-08-09T01:12:14.572Z,96087.81
2018-08-09T01:14:43.179Z,96088.23
2018-08-09T01:17:12.058Z,96089.77
2018-08-09T01:19:41.008Z,96088.45
2018-08-09T01:22:09.580Z,96088.72
2018-08-09T01:24:38.116Z,96089.82
2018-08-09T01:27:08.828Z,96090.55
2018-08-09T01:29:40.347Z,96085.19
2018-08-09T01:32:10.040Z,96092.68
2018-08-09T01:34:38.605Z,96079.55
2018-08-09T01:37:07.759Z,96083.77
2018-08-09T01:39:36.356Z,96081.27
2018-08-09T01:44:20.588Z,96079.06
2018-08-09T01:46:49.243Z,96082.25
2018-08-09T01:49:18.330Z,96089.78
2018-08-09T01:51:46.937Z,96082.67
2018-08-09T01:54:15.729Z,96085.02
2018-08-09T01:56:44.288Z,96090.34
2018-08-09T01:59:12.883Z,96088.41
2018-08-09T02:01:41.508Z,96091.14
2018-08-09T02:04:10.244Z,96096.86
2018-08-09T02:06:39.674Z,96097.00
2018-08-09T02:09:12.413Z,96096.59
2018-08-09T02:11:41.080Z,96101.33
2018-08-09T02:14:09.618Z,96103.41
2018-08-09T02:16:38.493Z,96100.72
2018-08-09T02:19:07.885Z,96104.52
2018-08-09T02:21:36.595Z,96103.89
2018-08-09T02:24:05.565Z,96104.91
2018-08-09T02:26:34.155Z,96111.02
2018-08-09T02:29:02.730Z,96107.98
2018-08-09T02:31:32.303Z,96102.55
2018-08-09T02:34:00.872Z,96099.20
2018-08-09T02:36:29.526Z,96098.61
2018-08-09T02:38:58.218Z,96093.92
2018-08-09T02:41:27.025Z,96099.28
2018-08-09T02:43:55.670Z,96103.63
2018-08-09T02:46:24.299Z,96102.21
2018-08-09T02:48:53.040Z,96109.27
2018-08-09T02:51:21.637Z,96105.84
2018-08-09T02:53:50.299Z,96106.25
2018-08-09T02:56:19.004Z,96111.48
2018-08-09T02:58:47.591Z,96105.42
2018-08-09T03:01:16.581Z,96106.36
2018-08-09T03:03:45.167Z,96101.55
2018-08-09T03:06:13.729Z,96087.64
2018-08-09T03:08:42.356Z,96097.43
2018-08-09T03:11:11.078Z,96101.33
2018-08-09T03:13:39.753Z,96102.61
2018-08-09T03:16:08.332Z,96103.09
2018-08-09T03:18:36.931Z,96097.65
2018-08-09T03:21:05.563Z,96105.61
2018-08-09T03:23:34.455Z,96104.11
2018-08-09T03:26:03.080Z,96107.28
2018-08-09T03:28:31.799Z,96105.30
2018-08-09T03:31:00.529Z,96106.34
2018-08-09T03:33:29.049Z,96107.22
2018-08-09T03:35:57.611Z,96112.38
2018-08-09T03:38:26.511Z,96108.43
2018-08-09T03:40:55.164Z,96116.83
2018-08-09T03:43:23.739Z,96121.69
2018-08-09T03:45:52.343Z,96133.77
2018-08-09T03:48:20.915Z,96128.25
2018-08-09T03:50:49.509Z,96124.31
2018-08-09T03:53:18.138Z,96123.55
2018-08-09T03:55:46.912Z,96123.20
2018-08-09T03:58:15.647Z,96130.27
2018-08-09T04:00:44.294Z,96132.09
2018-08-09T04:03:14.087Z,96130.58
2018-08-09T04:05:42.733Z,96129.95
2018-08-09T04:11:02.955Z,96128.96
2018-08-09T04:13:40.184Z,96124.79
2018-08-09T04:16:09.123Z,96126.81
2018-08-09T04:18:37.863Z,96124.62
2018-08-09T04:21:06.436Z,96127.66
2018-08-09T04:23:35.059Z,96114.90
2018-08-09T04:26:03.636Z,96109.31
2018-08-09T04:28:32.200Z,96114.44
2018-08-09T04:31:01.077Z,96109.54
2018-08-09T04:33:29.656Z,96104.38
2018-08-09T04:35:58.609Z,96107.16
2018-08-09T04:38:27.173Z,96110.88
2018-08-09T04:40:55.760Z,96110.88
2018-08-09T04:43:24.335Z,96104.45
2018-08-09T05:02:54.889Z,96090.73
2018-08-09T05:05:23.464Z,96098.50
2018-08-09T05:07:52.036Z,96101.48
2018-08-09T05:10:20.680Z,96097.85
2018-08-09T05:12:49.249Z,96104.52
2018-08-09T05:15:17.843Z,96102.06
2018-08-09T05:17:46.397Z,96107.86
2018-08-09T05:20:14.974Z,96107.61
2018-08-09T05:22:43.520Z,96107.23
2018-08-09T05:30:08.648Z,96109.02
2018-08-09T05:32:37.195Z,96111.98
2018-08-09T05:35:06.053Z,96112.83
2018-08-09T05:37:34.679Z,96116.08
2018-08-09T05:40:04.065Z,96118.83
2018-08-09T05:42:33.448Z,96118.59
2018-08-09T06:09:03.126Z,96118.36
2018-08-09T06:11:31.760Z,96115.53
2018-08-09T06:14:00.482Z,96112.81
2018-08-09T06:16:29.025Z,96121.37
2018-08-09T06:18:57.729Z,96118.58
2018-08-09T06:22:33.089Z,96120.08
2018-08-09T06:25:01.974Z,96118.86
2018-08-09T06:27:30.545Z,96118.66
2018-08-09T06:29:59.156Z,96118.33
2018-08-09T06:32:27.796Z,96114.84
2018-08-09T06:34:56.379Z,96119.08
2018-08-09T06:37:24.962Z,96122.07
2018-08-09T06:39:53.731Z,96115.66
2018-08-09T06:45:21.095Z,96113.02
2018-08-09T06:47:49.644Z,96107.80
2018-08-09T06:50:18.243Z,96107.25
2018-08-09T06:52:46.904Z,96101.23
2018-08-09T06:55:15.588Z,96093.11
2018-08-09T06:57:44.237Z,96100.29
2018-08-09T07:00:13.639Z,96092.61
2018-08-09T07:02:42.518Z,96085.54
2018-08-09T07:05:11.284Z,96092.14
2018-08-09T07:07:40.621Z,96087.48
2018-08-09T07:10:09.896Z,96089.43
2018-08-09T07:12:38.542Z,96090.91
2018-08-09T07:15:09.960Z,96093.97
2018-08-09T07:20:53.300Z,96092.55
2018-08-09T07:23:21.856Z,96094.41
2018-08-09T07:25:51.564Z,96088.42
2018-08-09T07:28:20.263Z,96094.30
2018-08-09T07:30:49.463Z,96095.03
2018-08-09T07:34:37.298Z,96095.41
2018-08-09T07:37:05.925Z,96091.94
2018-08-09T07:42:25.033Z,96092.69
2018-08-09T07:51:02.586Z,96082.31
2018-08-09T07:53:31.357Z,96084.70
2018-08-09T07:56:00.733Z,96084.92
2018-08-09T07:58:29.311Z,96082.44
2018-08-09T08:00:58.045Z,96084.68
2018-08-09T08:03:26.603Z,96081.98
2018-08-09T08:05:56.163Z,96081.32
2018-08-09T08:08:24.846Z,96088.16
2018-08-09T08:10:53.419Z,96081.63
2018-08-09T08:13:22.016Z,96080.88
2018-08-09T08:15:50.641Z,96079.75
2018-08-09T08:18:19.180Z,96078.97
2018-08-09T08:20:47.873Z,96080.49
2018-08-09T08:23:16.460Z,96080.14
2018-08-09T08:25:45.227Z,96078.34
2018-08-09T08:28:13.783Z,96079.22
2018-08-09T08:36:41.452Z,96074.44
2018-08-09T08:39:10.871Z,96070.88
2018-08-09T08:41:39.910Z,96071.84
2018-08-09T08:49:51.486Z,96069.81
2018-08-09T08:52:20.135Z,96072.08
2018-08-09T09:00:29.499Z,96066.47
2018-08-09T09:02:58.077Z,96068.75
2018-08-09T09:05:26.662Z,96066.36
2018-08-09T09:07:55.309Z,96062.56
2018-08-09T09:10:24.512Z,96060.78
2018-08-09T09:12:53.142Z,96061.19
2018-08-09T09:15:21.716Z,96058.94
2018-08-09T09:17:50.286Z,96060.53
2018-08-09T09:20:18.927Z,96059.20
2018-08-09T09:22:47.536Z,96059.61
2018-08-09T09:25:16.139Z,96058.47
2018-08-09T10:15:17.387Z,96009.83
2018-08-09T10:17:45.968Z,96007.50
2018-08-09T10:20:14.651Z,95999.03
2018-08-09T10:22:43.203Z,95994.11
2018-08-09T10:25:12.123Z,95988.86
2018-08-09T10:34:11.533Z,95986.25
2018-08-09T10:36:40.415Z,95975.14
2018-08-09T11:03:06.161Z,95946.58
2018-08-09T11:05:34.948Z,95945.20
2018-08-09T11:08:03.610Z,95957.98
2018-08-09T11:10:32.160Z,95941.78
2018-08-09T11:13:00.728Z,95930.53
2018-08-09T11:15:29.392Z,95935.83
2018-08-09T11:17:58.016Z,95935.75
2018-08-09T11:20:26.621Z,95936.09
2018-08-09T11:22:55.224Z,95946.09
2018-08-09T11:25:23.823Z,95942.69
2018-08-09T11:27:52.367Z,95929.89
2018-08-09T11:30:20.928Z,95926.17
2018-08-09T11:32:49.474Z,95928.43
2018-08-09T11:35:18.059Z,95931.16
2018-08-09T11:37:46.588Z,95923.87
2018-08-09T11:40:15.163Z,95923.79
2018-08-09T11:42:43.923Z,95921.47
2018-08-09T11:45:13.004Z,95919.56
2018-08-09T11:47:41.615Z,95913.38
2018-08-09T12:14:31.712Z,95905.73
2018-08-09T12:17:00.517Z,95906.05
2018-08-09T12:19:29.119Z,95900.61
2018-08-09T12:48:57.084Z,95863.23
2018-08-09T12:51:25.743Z,95851.52
2018-08-09T12:53:54.417Z,95848.85
2018-08-09T12:56:23.294Z,95847.31
2018-08-09T13:04:32.883Z,95840.07
2018-08-09T13:07:01.456Z,95827.22
2018-08-09T13:09:30.099Z,95819.67
2018-08-09T13:11:58.740Z,95819.44
2018-08-09T13:14:27.568Z,95828.40
2018-08-09T13:16:56.166Z,95837.67
2018-08-09T13:22:33.274Z,95832.42
2018-08-09T13:25:01.845Z,95822.56
2018-08-09T13:27:30.547Z,95816.08
2018-08-09T13:29:59.997Z,95802.93
2018-08-09T13:32:28.594Z,95793.94
2018-08-09T13:34:57.272Z,95799.02
2018-08-09T13:37:26.333Z,95805.91
2018-08-09T13:39:54.885Z,95806.95
2018-08-09T13:42:23.472Z,95797.18
2018-08-09T13:44:52.067Z,95795.77
2018-08-09T13:47:20.757Z,95805.40
2018-08-09T13:49:49.395Z,95814.90
2018-08-09T13:52:18.044Z,95788.78
2018-08-09T13:54:46.624Z,95795.70
2018-08-09T13:57:15.271Z,95794.23
2018-08-09T13:59:43.894Z,95806.56
2018-08-09T14:33:33.136Z,95766.38
2018-08-09T14:36:01.809Z,95761.11
2018-08-09T14:38:30.394Z,95754.45
2018-08-09T14:40:59.062Z,95753.63
2018-08-09T14:43:27.791Z,95757.63
2018-08-09T14:45:56.450Z,95752.59
2018-08-09T14:48:25.313Z,95747.78
2018-08-09T14:50:53.952Z,95748.92
2018-08-09T14:53:45.259Z,95742.73
2018-08-09T14:56:13.823Z,95752.08
2018-08-09T14:58:42.522Z,95758.16
2018-08-09T15:01:11.160Z,95764.81
2018-08-09T15:06:30.424Z,95759.55
2018-08-09T15:08:59.104Z,95759.55
2018-08-09T15:11:29.038Z,95755.95
2018-08-09T15:43:19.187Z,95761.85
2018-08-09T15:45:47.757Z,95765.75
2018-08-09T15:48:16.487Z,95769.72
2018-08-09T15:50:45.083Z,95771.59
2018-08-09T15:53:14.048Z,95764.24
2018-08-09T16:21:02.294Z,95775.13
2018-08-09T16:23:31.059Z,95769.19
2018-08-09T16:25:59.692Z,95768.31
2018-08-09T16:28:28.349Z,95775.83
2018-08-09T16:30:56.989Z,95767.94
2018-08-09T16:33:25.558Z,95779.30
2018-08-09T16:35:54.152Z,95772.38
2018-08-09T16:38:22.789Z,95785.13
2018-08-09T16:40:51.391Z,95778.59
2018-08-09T16:43:19.992Z,95788.47
2018-08-09T16:45:49.127Z,95786.73
2018-08-09T16:48:17.816Z,95779.66
2018-08-09T16:50:46.431Z,95782.42
2018-08-09T16:58:48.732Z,95778.73
2018-08-09T17:01:17.338Z,95778.66
2018-08-09T17:29:31.048Z,95790.64
2018-08-09T17:31:59.699Z,95786.33
2018-08-09T17:34:28.325Z,95801.20
2018-08-09T17:36:57.090Z,95799.33
2018-08-09T17:39:26.034Z,95804.12
2018-08-09T17:45:00.511Z,95806.53
2018-08-09T17:47:29.308Z,95801.05
2018-08-09T17:49:57.939Z,95801.28
2018-08-09T17:52:26.550Z,95803.97
2018-08-09T17:54:55.138Z,95805.02
2018-08-09T17:57:23.813Z,95807.68
2018-08-09T17:59:52.426Z,95813.52
2018-08-09T18:02:21.046Z,95807.16
2018-08-09T18:04:49.843Z,95805.28
2018-08-09T18:07:18.472Z,95804.77
2018-08-09T18:09:47.064Z,95809.28
2018-08-09T18:32:08.118Z,95803.42
2018-08-09T18:34:36.825Z,95816.36
2018-08-09T18:37:05.427Z,95821.44
2018-08-09T18:39:34.123Z,95822.24
2018-08-09T18:42:02.804Z,95823.58
2018-08-09T18:44:31.564Z,95830.18
2018-08-09T18:47:00.183Z,95832.67
2018-08-09T18:49:28.762Z,95838.14
2018-08-09T18:51:57.830Z,95838.30
2018-08-09T18:54:26.405Z,95846.66
2018-08-09T18:56:55.020Z,95850.27
2018-08-09T18:59:23.676Z,95849.80
2018-08-09T19:01:53.310Z,95850.13
2018-08-09T19:04:21.988Z,95848.43
2018-08-09T19:06:50.695Z,95851.58
2018-08-09T19:09:19.581Z,95853.95
2018-08-09T19:11:48.188Z,95862.84
2018-08-09T19:14:16.905Z,95862.55
2018-08-09T19:16:45.485Z,95859.02
2018-08-09T19:19:14.151Z,95857.05
2018-08-09T19:21:42.810Z,95855.34
2018-08-09T19:24:11.404Z,95862.75
2018-08-09T19:26:40.231Z,95867.73
2018-08-09T19:29:09.088Z,95868.63
2018-08-09T19:31:38.060Z,95873.52
2018-08-09T19:34:06.949Z,95868.02
2018-08-09T19:36:35.777Z,95871.46
2018-08-09T19:39:07.642Z,95873.53
2018-08-09T19:41:36.291Z,95874.53
2018-08-09T19:45:22.712Z,95872.47
2018-08-09T19:47:51.397Z,95867.92
2018-08-09T19:50:21.758Z,95872.19
2018-08-09T19:52:50.456Z,95872.45
2018-08-09T19:55:20.672Z,95876.92
2018-08-09T19:57:50.021Z,95875.51
2018-08-09T20:00:23.567Z,95885.21
2018-08-09T20:02:52.225Z,95883.63
2018-08-09T20:05:22.675Z,95886.61
2018-08-09T20:07:52.404Z,95891.80
2018-08-09T20:10:22.097Z,95895.25
2018-08-09T20:12:50.804Z,95890.99
2018-08-09T20:15:21.040Z,95897.58
2018-08-09T20:17:49.767Z,95902.22
2018-08-09T20:20:20.001Z,95904.16
2018-08-09T20:22:48.762Z,95899.43
2018-08-09T20:25:18.377Z,95910.58
2018-08-09T20:27:47.664Z,95906.28
2018-08-09T20:30:18.349Z,95910.63
2018-08-09T20:32:47.589Z,95915.11
2018-08-09T20:35:17.689Z,95917.67
2018-08-09T20:37:47.088Z,95917.63
2018-08-09T20:40:16.664Z,95915.55
2018-08-09T20:42:46.547Z,95918.13
2018-08-09T20:45:16.535Z,95923.09
2018-08-09T20:47:45.491Z,95919.25
2018-08-09T20:50:17.489Z,95920.23
2018-08-09T20:52:47.345Z,95926.62
2018-08-09T20:55:16.958Z,95925.60
2018-08-09T20:57:46.449Z,95930.64
2018-08-09T21:00:19.627Z,95930.87
2018-08-09T21:02:49.697Z,95936.66
2018-08-09T21:05:23.743Z,95935.48
2018-08-09T21:07:54.348Z,95932.45
2018-08-09T21:10:23.388Z,95935.91
2018-08-09T21:12:52.011Z,95938.58
2018-08-09T21:15:21.231Z,95943.22
2018-08-09T21:17:49.827Z,95933.29
2018-08-09T21:20:18.458Z,95942.89
2018-08-09T21:22:48.025Z,95942.94
2018-08-09T21:25:18.000Z,95939.03
2018-08-09T21:27:47.326Z,95944.34
2018-08-09T21:30:19.552Z,95946.47
2018-08-09T21:32:48.967Z,95953.69
2018-08-09T21:35:17.693Z,95955.64
2018-08-09T21:37:47.140Z,95963.25
2018-08-09T21:40:16.285Z,95958.05
2018-08-09T21:42:44.941Z,95960.48
2018-08-09T22:03:49.420Z,95985.56
2018-08-09T22:06:23.206Z,95986.08
2018-08-09T22:08:57.601Z,95990.23
2018-08-09T22:11:33.704Z,95989.80
2018-08-09T22:14:07.383Z,95990.45
2018-08-09T22:16:41.107Z,96006.22
2018-08-09T22:22:13.595Z,96043.63
2018-08-09T22:24:42.341Z,96042.47
2018-08-09T22:27:11.664Z,96047.30
2018-08-09T22:29:40.286Z,96041.12
2018-08-09T22:32:08.906Z,96068.31
2018-08-09T22:34:37.489Z,96084.23
2018-08-09T22:37:06.070Z,96072.55
2018-08-09T22:39:35.083Z,96076.83
2018-08-09T22:42:03.715Z,96074.50
2018-08-09T22:44:32.302Z,96074.50
2018-08-09T22:47:00.853Z,96081.06
2018-08-09T22:49:29.600Z,96075.81
2018-08-09T22:51:58.285Z,96089.17
2018-08-09T22:54:27.362Z,96090.32
2018-08-09T22:56:55.940Z,96091.42
2018-08-09T22:59:24.575Z,96087.43
2018-08-09T23:15:27.820Z,96137.67
2018-08-09T23:17:56.391Z,96137.75
2018-08-09T23:20:24.974Z,96141.02
2018-08-09T23:22:53.669Z,96160.07
2018-08-09T23:25:22.389Z,96147.38
2018-08-09T23:27:51.030Z,96142.31
2018-08-09T23:30:19.779Z,96153.84
2018-08-09T23:32:48.332Z,96147.71
2018-08-09T23:35:16.935Z,96162.27
2018-08-09T23:37:45.567Z,96154.24
2018-08-09T23:40:14.216Z,96164.31
2018-08-09T23:42:42.796Z,96161.38
2018-08-09T23:45:11.809Z,96178.44
2018-08-09T23:47:41.438Z,96189.70
